^^
Your Local Weather - Clay, NY Station Historical Data
Daily Summary for August 4, 2017 Units:  English    Metric   Both
« Previous Day
Next Day »
Daily Weekly Monthly Yearly Custom
  High: Low: Average:
Temperature: 86.0 °F 63.8 °F 72.6 °F
Dew Point: 71.8 °F 61.5 °F 65.6 °F
Humidity: 95% 53% 80%
Wind Speed: 8.0mph 0.0mph 1.6mph
Wind Gust: 14.0mph - -
Wind- - SSW
Pressure: 29.95 in 29.72 in -
Precipitation: 0.27 in    
Historical Graphs
 
 
Tabular Data for August 4, 2017
Time Temperature Dew Point Pressure Wind Wind Speed Wind Gust Humidity Rainfall Rate (Hourly) solar
00:04 64.5 °F 62.4 °F 29.95 in Calm     93% 0.00 in 0 W/m2
00:09 64.5 °F 62.7 °F 29.94 in Calm     94% 0.00 in 0 W/m2
00:15 64.4 °F 62.6 °F 29.95 in Calm     94% 0.00 in 0 W/m2
00:22 64.3 °F 62.5 °F 29.94 in Calm     94% 0.00 in 0 W/m2
00:28 64.2 °F 62.4 °F 29.94 in Calm     94% 0.00 in 0 W/m2
00:34 64.2 °F 62.4 °F 29.94 in Calm     94% 0.00 in 0 W/m2
00:35 64.3 °F 62.5 °F 29.94 in Calm     94% 0.00 in 0 W/m2
00:42 64.4 °F 62.6 °F 29.94 in Calm     94% 0.00 in 0 W/m2
00:48 64.5 °F 62.7 °F 29.93 in Calm     94% 0.00 in 0 W/m2
00:54 64.6 °F 62.8 °F 29.93 in Calm     94% 0.00 in 0 W/m2
00:59 64.7 °F 62.9 °F 29.93 in Calm     94% 0.00 in 0 W/m2
01:05 64.7 °F 62.9 °F 29.93 in Calm     94% 0.00 in 0 W/m2
01:12 64.7 °F 62.9 °F 29.93 in Calm     94% 0.00 in 0 W/m2
01:18 64.8 °F 63.0 °F 29.93 in Calm     94% 0.00 in 0 W/m2
01:25 64.7 °F 62.9 °F 29.93 in Calm     94% 0.00 in 0 W/m2
01:32 64.7 °F 62.9 °F 29.92 in Calm     94% 0.00 in 0 W/m2
01:38 64.7 °F 62.9 °F 29.92 in Calm     94% 0.00 in 0 W/m2
01:43 64.6 °F 62.8 °F 29.92 in Calm     94% 0.00 in 0 W/m2
01:49 64.6 °F 62.8 °F 29.92 in Calm     94% 0.00 in 0 W/m2
01:56 64.6 °F 62.8 °F 29.92 in Calm     94% 0.00 in 0 W/m2
02:02 64.5 °F 62.7 °F 29.92 in Calm     94% 0.00 in 0 W/m2
02:08 64.3 °F 62.5 °F 29.92 in Calm     94% 0.00 in 0 W/m2
02:13 64.2 °F 62.4 °F 29.92 in Calm     94% 0.00 in 0 W/m2
02:19 64.1 °F 62.3 °F 29.92 in Calm     94% 0.00 in 0 W/m2
02:25 64.2 °F 62.4 °F 29.92 in Calm     94% 0.00 in 0 W/m2
02:32 64.3 °F 62.5 °F 29.92 in Calm     94% 0.00 in 0 W/m2
02:38 64.2 °F 62.4 °F 29.91 in Calm     94% 0.00 in 0 W/m2
02:44 64.3 °F 62.5 °F 29.91 in Calm     94% 0.00 in 0 W/m2
02:49 64.3 °F 62.8 °F 29.91 in Calm     95% 0.00 in 0 W/m2
02:56 64.3 °F 62.5 °F 29.91 in Calm   1.0 mph 94% 0.00 in 0 W/m2
03:02 64.3 °F 62.5 °F 29.91 in Calm     94% 0.00 in 0 W/m2
03:08 64.3 °F 62.5 °F 29.91 in Calm     94% 0.00 in 0 W/m2
03:13 64.4 °F 62.9 °F 29.91 in Calm     95% 0.00 in 0 W/m2
03:19 64.4 °F 62.9 °F 29.91 in Calm     95% 0.00 in 0 W/m2
03:25 64.3 °F 62.5 °F 29.91 in Calm     94% 0.00 in 0 W/m2
03:32 64.2 °F 62.4 °F 29.90 in Calm   1.0 mph 94% 0.00 in 0 W/m2
03:38 64.2 °F 62.7 °F 29.91 in Calm   1.0 mph 95% 0.00 in 0 W/m2
03:44 64.2 °F 62.7 °F 29.91 in Calm     95% 0.00 in 0 W/m2
03:49 64.2 °F 62.7 °F 29.90 in Calm     95% 0.00 in 0 W/m2
03:55 64.2 °F 62.7 °F 29.90 in Calm   1.0 mph 95% 0.00 in 0 W/m2
04:02 64.1 °F 62.6 °F 29.90 in Calm     95% 0.00 in 0 W/m2
04:08 64.2 °F 62.7 °F 29.90 in Calm     95% 0.00 in 0 W/m2
04:13 64.2 °F 62.7 °F 29.89 in Calm     95% 0.00 in 0 W/m2
04:19 64.2 °F 62.7 °F 29.89 in Calm     95% 0.00 in 0 W/m2
04:26 64.1 °F 62.6 °F 29.89 in Calm     95% 0.00 in 0 W/m2
04:32 64.1 °F 62.6 °F 29.89 in Calm     95% 0.00 in 0 W/m2
04:38 64.0 °F 62.5 °F 29.89 in Calm     95% 0.00 in 0 W/m2
04:43 64.0 °F 62.5 °F 29.89 in Calm     95% 0.00 in 0 W/m2
04:50 64.0 °F 62.5 °F 29.89 in Calm     95% 0.00 in 0 W/m2
04:55 64.0 °F 62.5 °F 29.90 in Calm   1.0 mph 95% 0.00 in 0 W/m2
05:02 64.0 °F 62.5 °F 29.90 in Calm     95% 0.00 in 0 W/m2
05:08 64.0 °F 62.5 °F 29.90 in Calm   1.0 mph 95% 0.00 in 0 W/m2
05:13 63.9 °F 62.4 °F 29.90 in Calm     95% 0.00 in 0 W/m2
05:19 64.0 °F 62.5 °F 29.90 in Calm     95% 0.00 in 0 W/m2
05:26 63.9 °F 62.4 °F 29.90 in Calm   1.0 mph 95% 0.00 in 0 W/m2
05:32 64.0 °F 62.5 °F 29.90 in Calm   1.0 mph 95% 0.00 in 0 W/m2
05:38 64.0 °F 62.5 °F 29.90 in Calm   1.0 mph 95% 0.00 in 0 W/m2
05:44 64.0 °F 62.5 °F 29.90 in Calm     95% 0.00 in 0 W/m2
05:49 63.9 °F 62.4 °F 29.90 in Calm     95% 0.00 in 0 W/m2
05:55 63.9 °F 62.4 °F 29.90 in Calm     95% 0.00 in 0 W/m2
06:02 63.8 °F 62.3 °F 29.89 in Calm     95% 0.00 in 5 W/m2
06:08 63.8 °F 62.3 °F 29.89 in Calm     95% 0.00 in 9 W/m2
06:14 64.0 °F 62.5 °F 29.89 in Calm     95% 0.00 in 12 W/m2
06:19 64.2 °F 62.7 °F 29.89 in Calm     95% 0.00 in 18 W/m2
06:25 64.4 °F 62.9 °F 29.89 in Calm     95% 0.00 in 23 W/m2
06:32 64.6 °F 63.1 °F 29.89 in Calm     95% 0.00 in 25 W/m2
06:38 64.7 °F 63.2 °F 29.89 in Calm     95% 0.00 in 28 W/m2
06:43 64.8 °F 63.3 °F 29.89 in Calm     95% 0.00 in 49 W/m2
06:49 65.1 °F 63.6 °F 29.89 in Calm     95% 0.00 in 54 W/m2
06:56 65.4 °F 63.9 °F 29.89 in Calm     95% 0.00 in 76 W/m2
07:02 65.7 °F 64.2 °F 29.89 in Calm   1.0 mph 95% 0.00 in 114 W/m2
07:08 66.1 °F 64.6 °F 29.89 in Calm   1.0 mph 95% 0.00 in 130 W/m2
07:14 66.5 °F 65.0 °F 29.89 in Calm     95% 0.00 in 148 W/m2
07:19 67.0 °F 65.5 °F 29.89 in Calm     95% 0.00 in 171 W/m2
07:25 67.4 °F 65.9 °F 29.89 in Calm     95% 0.00 in 204 W/m2
07:32 67.9 °F 66.4 °F 29.89 in Calm     95% 0.00 in 227 W/m2
07:38 68.6 °F 67.1 °F 29.89 in Calm     95% 0.00 in 239 W/m2
07:43 69.4 °F 67.9 °F 29.89 in Calm     95% 0.00 in 244 W/m2
07:49 69.9 °F 68.4 °F 29.88 in Calm   2.0 mph 95% 0.00 in 262 W/m2
07:55 70.3 °F 68.8 °F 29.88 in Calm   2.0 mph 95% 0.00 in 272 W/m2
08:02 70.7 °F 69.2 °F 29.89 in Calm   1.0 mph 95% 0.00 in 267 W/m2
08:08 71.0 °F 69.5 °F 29.89 in Calm   2.0 mph 95% 0.00 in 287 W/m2
08:13 71.6 °F 70.1 °F 29.89 in Calm   1.0 mph 95% 0.00 in 304 W/m2
08:19 72.5 °F 71.0 °F 29.89 in Calm     95% 0.00 in 98 W/m2
08:26 72.1 °F 70.3 °F 29.89 in Calm   1.0 mph 94% 0.00 in 332 W/m2
08:32 72.4 °F 69.9 °F 29.89 in WSW 1.0 mph 1.0 mph 92% 0.00 in 188 W/m2
08:38 73.1 °F 70.0 °F 29.89 in Calm   1.0 mph 90% 0.00 in 360 W/m2
08:43 73.7 °F 69.9 °F 29.89 in WSW 1.0 mph 3.0 mph 88% 0.00 in 371 W/m2
08:49 74.5 °F 70.4 °F 29.89 in Calm     87% 0.00 in 390 W/m2
08:56 75.0 °F 69.8 °F 29.89 in Calm     84% 0.00 in 424 W/m2
09:03 75.6 °F 69.4 °F 29.89 in SSE 1.0 mph 2.0 mph 81% 0.00 in 454 W/m2
09:09 75.9 °F 68.9 °F 29.88 in SSE 1.0 mph 1.0 mph 79% 0.00 in 471 W/m2
09:16 76.4 °F 69.0 °F 29.88 in SSE 2.0 mph 2.0 mph 78% 0.00 in 487 W/m2
09:22 76.7 °F 68.6 °F 29.88 in SSE 2.0 mph 3.0 mph 76% 0.00 in 496 W/m2
09:28 76.9 °F 68.4 °F 29.89 in SSE 3.0 mph 6.0 mph 75% 0.00 in 512 W/m2
09:33 77.4 °F 68.9 °F 29.89 in SSE 2.0 mph 4.0 mph 75% 0.00 in 531 W/m2
09:39 77.6 °F 68.7 °F 29.89 in SW 3.0 mph 3.0 mph 74% 0.00 in 550 W/m2
09:45 78.1 °F 68.3 °F 29.89 in SE 3.0 mph 9.0 mph 72% 0.00 in 570 W/m2
09:52 78.4 °F 67.8 °F 29.88 in WSW 3.0 mph 3.0 mph 70% 0.00 in 591 W/m2
09:58 78.9 °F 68.7 °F 29.88 in South 2.0 mph 5.0 mph 71% 0.00 in 613 W/m2
10:03 79.1 °F 68.1 °F 29.88 in SSW 3.0 mph 3.0 mph 69% 0.00 in 619 W/m2
10:09 79.3 °F 68.7 °F 29.88 in SSE 4.0 mph 4.0 mph 70% 0.00 in 643 W/m2
10:16 79.5 °F 68.4 °F 29.88 in ESE 4.0 mph 5.0 mph 69% 0.00 in 668 W/m2
10:22 79.7 °F 68.6 °F 29.88 in SSW 2.0 mph 4.0 mph 69% 0.00 in 650 W/m2
10:28 80.3 °F 69.2 °F 29.88 in WSW 2.0 mph 6.0 mph 69% 0.00 in 696 W/m2
10:33 80.5 °F 68.1 °F 29.88 in SW 3.0 mph 4.0 mph 66% 0.00 in 714 W/m2
10:40 80.9 °F 68.5 °F 29.88 in SW 3.0 mph 3.0 mph 66% 0.00 in 737 W/m2
10:45 81.3 °F 68.9 °F 29.88 in SSE 2.0 mph 3.0 mph 66% 0.00 in 701 W/m2
10:52 81.6 °F 68.2 °F 29.88 in SSW 4.0 mph 5.0 mph 64% 0.00 in 745 W/m2
10:58 82.1 °F 69.2 °F 29.88 in SW 3.0 mph 5.0 mph 65% 0.00 in 754 W/m2
11:03 82.0 °F 68.2 °F 29.88 in SW 3.0 mph 6.0 mph 63% 0.00 in 777 W/m2
11:09 82.2 °F 69.3 °F 29.88 in South 4.0 mph 4.0 mph 65% 0.00 in 911 W/m2
11:16 82.2 °F 69.3 °F 29.88 in WSW 4.0 mph 8.0 mph 65% 0.00 in 823 W/m2
11:22 82.6 °F 68.3 °F 29.88 in SSW 5.0 mph 6.0 mph 62% 0.00 in 863 W/m2
11:28 82.4 °F 68.1 °F 29.87 in SSE 6.0 mph 10.0 mph 62% 0.00 in 928 W/m2
11:33 82.6 °F 67.8 °F 29.87 in South 6.0 mph 6.0 mph 61% 0.00 in 870 W/m2
11:39 83.4 °F 67.6 °F 29.87 in SW 5.0 mph 5.0 mph 59% 0.00 in 944 W/m2
11:45 83.5 °F 67.2 °F 29.87 in South 6.0 mph 7.0 mph 58% 0.00 in 1011 W/m2
11:52 83.4 °F 68.1 °F 29.86 in SSW 6.0 mph 6.0 mph 60% 0.00 in 680 W/m2
11:58 83.6 °F 66.2 °F 29.86 in SW 5.0 mph 7.0 mph 56% 0.00 in 657 W/m2
12:03 83.0 °F 67.7 °F 29.86 in South 5.0 mph 5.0 mph 60% 0.00 in 385 W/m2
12:10 83.0 °F 67.2 °F 29.86 in South 3.0 mph 4.0 mph 59% 0.00 in 221 W/m2
12:15 82.6 °F 66.3 °F 29.86 in South 3.0 mph 4.0 mph 58% 0.00 in 301 W/m2
12:22 82.5 °F 66.2 °F 29.86 in WSW 4.0 mph 4.0 mph 58% 0.00 in 309 W/m2
12:28 83.3 °F 67.0 °F 29.85 in WSW 3.0 mph 4.0 mph 58% 0.00 in 1037 W/m2
12:34 84.3 °F 66.9 °F 29.85 in SW 4.0 mph 6.0 mph 56% 0.00 in 923 W/m2
12:39 84.7 °F 68.3 °F 29.84 in SW 4.0 mph 4.0 mph 58% 0.00 in 925 W/m2
12:45 84.7 °F 67.8 °F 29.84 in WSW 3.0 mph 8.0 mph 57% 0.00 in 1037 W/m2
12:52 84.4 °F 68.0 °F 29.84 in South 5.0 mph 7.0 mph 58% 0.00 in 411 W/m2
12:58 83.1 °F 67.3 °F 29.83 in SW 6.0 mph 14.0 mph 59% 0.00 in 504 W/m2
13:03 83.4 °F 67.1 °F 29.83 in SSE 6.0 mph 6.0 mph 58% 0.00 in 976 W/m2
13:10 84.6 °F 68.7 °F 29.82 in SW 5.0 mph 5.0 mph 59% 0.00 in 914 W/m2
13:15 84.8 °F 68.9 °F 29.81 in SW 4.0 mph 6.0 mph 59% 0.00 in 907 W/m2
13:22 85.0 °F 68.1 °F 29.81 in SSW 4.0 mph 4.0 mph 57% 0.00 in 942 W/m2
13:28 86.0 °F 69.5 °F 29.81 in WSW 4.0 mph 9.0 mph 58% 0.00 in 1046 W/m2
13:34 85.6 °F 67.0 °F 29.81 in SSW 5.0 mph 9.0 mph 54% 0.00 in 643 W/m2
13:39 84.6 °F 66.1 °F 29.81 in SW 5.0 mph 5.0 mph 54% 0.00 in 227 W/m2
13:45 83.5 °F 66.7 °F 29.81 in South 6.0 mph 8.0 mph 57% 0.00 in 188 W/m2
13:52 82.6 °F 67.3 °F 29.81 in SSW 6.0 mph 8.0 mph 60% 0.00 in 116 W/m2
13:58 79.4 °F 65.2 °F 29.82 in SSE 7.0 mph 13.0 mph 62% 0.39 in 63 W/m2
14:03 74.8 °F 63.9 °F 29.80 in NNW 8.0 mph 10.0 mph 69% 0.65 in 65 W/m2
14:09 73.3 °F 65.7 °F 29.79 in SE 4.0 mph 4.0 mph 77% 0.09 in 97 W/m2
14:16 72.0 °F 66.6 °F 29.80 in Calm   4.0 mph 83% 0.05 in 125 W/m2
14:22 72.1 °F 67.3 °F 29.80 in Calm     85% 0.00 in 134 W/m2
14:28 72.7 °F 67.6 °F 29.80 in SW 2.0 mph 6.0 mph 84% 0.00 in 141 W/m2
14:33 73.3 °F 68.2 °F 29.80 in South 2.0 mph 2.0 mph 84% 0.00 in 149 W/m2
14:39 73.9 °F 68.8 °F 29.80 in South 2.0 mph 2.0 mph 84% 0.00 in 236 W/m2
14:45 74.3 °F 69.5 °F 29.78 in SSE 2.0 mph 3.0 mph 85% 0.00 in 485 W/m2
14:52 75.8 °F 71.3 °F 29.78 in SSE 1.0 mph 2.0 mph 86% 0.00 in 793 W/m2
14:58 76.7 °F 70.1 °F 29.78 in SE 1.0 mph 3.0 mph 80% 0.00 in 740 W/m2
15:04 77.4 °F 70.7 °F 29.77 in SE 1.0 mph 1.0 mph 80% 0.00 in 756 W/m2
15:12 78.3 °F 71.6 °F 29.77 in SE 1.0 mph 1.0 mph 80% 0.00 in 675 W/m2
15:18 78.6 °F 70.0 °F 29.77 in South 1.0 mph 4.0 mph 75% 0.00 in 698 W/m2
15:23 79.1 °F 70.9 °F 29.77 in South 2.0 mph 3.0 mph 76% 0.00 in 684 W/m2
15:29 80.3 °F 71.6 °F 29.77 in South 1.0 mph 2.0 mph 75% 0.00 in 707 W/m2
15:36 81.0 °F 71.1 °F 29.77 in South 1.0 mph 3.0 mph 72% 0.00 in 677 W/m2
15:42 81.8 °F 71.5 °F 29.76 in South 1.0 mph 3.0 mph 71% 0.00 in 686 W/m2
15:48 81.8 °F 70.6 °F 29.76 in SSE 1.0 mph 3.0 mph 69% 0.00 in 323 W/m2
15:53 81.3 °F 70.2 °F 29.75 in SSE 1.0 mph 1.0 mph 69% 0.00 in 229 W/m2
16:00 81.6 °F 70.4 °F 29.75 in SSE 1.0 mph 2.0 mph 69% 0.00 in 483 W/m2
16:06 82.5 °F 71.3 °F 29.75 in SSE 1.0 mph 3.0 mph 69% 0.00 in 779 W/m2
16:12 82.9 °F 70.8 °F 29.75 in SSE 1.0 mph 1.0 mph 67% 0.00 in 218 W/m2
16:18 82.6 °F 71.8 °F 29.75 in Calm   1.0 mph 70% 0.00 in 290 W/m2
16:23 82.5 °F 71.3 °F 29.75 in Calm     69% 0.00 in 320 W/m2
16:30 82.8 °F 71.2 °F 29.74 in SSE 1.0 mph 4.0 mph 68% 0.00 in 279 W/m2
16:35 83.9 °F 70.4 °F 29.74 in SSE 3.0 mph 5.0 mph 64% 0.00 in 559 W/m2
16:42 85.2 °F 68.8 °F 29.74 in South 4.0 mph 4.0 mph 58% 0.00 in 316 W/m2
16:48 85.1 °F 67.1 °F 29.74 in SSE 5.0 mph 10.0 mph 55% 0.00 in 221 W/m2
16:53 84.8 °F 66.3 °F 29.74 in SSE 5.0 mph 5.0 mph 54% 0.00 in 229 W/m2
17:00 84.5 °F 65.5 °F 29.74 in SW 5.0 mph 9.0 mph 53% 0.00 in 69 W/m2
17:05 83.8 °F 64.8 °F 29.74 in South 7.0 mph 10.0 mph 53% 0.00 in 91 W/m2
17:12 83.5 °F 65.1 °F 29.74 in SSW 6.0 mph 7.0 mph 54% 0.00 in 77 W/m2
17:18 83.1 °F 65.3 °F 29.74 in South 6.0 mph 10.0 mph 55% 0.00 in 74 W/m2
17:24 82.9 °F 64.5 °F 29.74 in SSW 7.0 mph 7.0 mph 54% 0.00 in 74 W/m2
17:30 82.9 °F 64.5 °F 29.74 in SW 7.0 mph 7.0 mph 54% 0.00 in 81 W/m2
17:35 83.0 °F 65.2 °F 29.73 in South 5.0 mph 7.0 mph 55% 0.00 in 167 W/m2
17:42 83.8 °F 65.4 °F 29.72 in SW 4.0 mph 9.0 mph 54% 0.00 in 144 W/m2
17:48 84.1 °F 65.7 °F 29.72 in SSW 5.0 mph 9.0 mph 54% 0.00 in 97 W/m2
17:54 84.3 °F 66.9 °F 29.72 in SSW 4.0 mph 5.0 mph 56% 0.00 in 98 W/m2
17:59 84.2 °F 66.8 °F 29.72 in WSW 3.0 mph 3.0 mph 56% 0.00 in 90 W/m2
18:05 83.4 °F 68.1 °F 29.72 in WNW 1.0 mph 3.0 mph 60% 0.00 in 79 W/m2
18:12 82.7 °F 67.9 °F 29.72 in WSW 1.0 mph 2.0 mph 61% 0.00 in 74 W/m2
18:18 82.5 °F 68.2 °F 29.73 in WSW 1.0 mph 2.0 mph 62% 0.00 in 97 W/m2
18:23 82.2 °F 68.3 °F 29.74 in Calm   1.0 mph 63% 0.00 in 128 W/m2
18:30 81.8 °F 68.4 °F 29.74 in Calm     64% 0.00 in 56 W/m2
18:35 80.1 °F 66.8 °F 29.74 in NNW 1.0 mph 1.0 mph 64% 0.00 in 30 W/m2
18:42 78.5 °F 65.8 °F 29.75 in NNW 1.0 mph 1.0 mph 65% 0.00 in 19 W/m2
18:48 76.9 °F 66.0 °F 29.75 in NNW 1.0 mph 3.0 mph 69% 0.00 in 12 W/m2
18:53 75.7 °F 64.8 °F 29.74 in NW 2.0 mph 4.0 mph 69% 0.00 in 5 W/m2
19:00 74.8 °F 65.2 °F 29.75 in NNW 2.0 mph 2.0 mph 72% 0.00 in 5 W/m2
19:06 74.4 °F 64.8 °F 29.75 in SSW 3.0 mph 5.0 mph 72% 0.00 in 23 W/m2
19:12 74.4 °F 64.8 °F 29.75 in SSW 1.0 mph 2.0 mph 72% 0.00 in 46 W/m2
19:18 74.2 °F 64.2 °F 29.75 in West 1.0 mph 3.0 mph 71% 0.00 in 49 W/m2
19:23 74.2 °F 64.6 °F 29.75 in West 1.0 mph 1.0 mph 72% 0.00 in 44 W/m2
19:29 74.1 °F 64.9 °F 29.75 in Calm     73% 0.00 in 35 W/m2
19:36 74.1 °F 64.9 °F 29.75 in Calm     73% 0.00 in 23 W/m2
19:42 73.9 °F 65.1 °F 29.77 in Calm     74% 0.00 in 9 W/m2
19:48 73.6 °F 65.2 °F 29.78 in Calm   4.0 mph 75% 0.00 in 16 W/m2
19:53 73.3 °F 64.1 °F 29.78 in NNW 1.0 mph 2.0 mph 73% 0.00 in 12 W/m2
19:59 73.2 °F 63.6 °F 29.80 in NNW 2.0 mph 3.0 mph 72% 0.00 in 0 W/m2
20:06 72.8 °F 63.6 °F 29.82 in West 3.0 mph 5.0 mph 73% 0.00 in 0 W/m2
20:12 72.0 °F 63.6 °F 29.82 in WSW 3.0 mph 3.0 mph 75% 0.00 in 0 W/m2
20:18 71.4 °F 63.4 °F 29.82 in NW 3.0 mph 3.0 mph 76% 0.00 in 0 W/m2
20:23 71.0 °F 63.4 °F 29.81 in West 2.0 mph 3.0 mph 77% 0.00 in 0 W/m2
20:30 70.6 °F 62.3 °F 29.81 in SSW 2.0 mph 7.0 mph 75% 0.00 in 0 W/m2
20:35 70.2 °F 61.5 °F 29.81 in WNW 4.0 mph 7.0 mph 74% 0.00 in 0 W/m2
20:42 69.4 °F 61.9 °F 29.82 in WSW 4.0 mph 4.0 mph 77% 0.00 in 0 W/m2
20:48 67.9 °F 61.9 °F 29.80 in SW 4.0 mph 5.0 mph 81% 0.38 in 0 W/m2
20:53 66.9 °F 61.9 °F 29.80 in SW 3.0 mph 5.0 mph 84% 0.17 in 0 W/m2
20:59 66.4 °F 62.1 °F 29.81 in SW 1.0 mph 1.0 mph 86% 0.09 in 0 W/m2
21:05 66.1 °F 62.1 °F 29.80 in SW 1.0 mph 2.0 mph 87% 0.05 in 0 W/m2
21:12 66.1 °F 62.4 °F 29.80 in Calm   1.0 mph 88% 0.13 in 0 W/m2
21:18 66.0 °F 62.7 °F 29.80 in Calm   2.0 mph 89% 0.08 in 0 W/m2
21:23 66.0 °F 62.7 °F 29.80 in SW 1.0 mph 3.0 mph 89% 0.17 in 0 W/m2
21:29 66.0 °F 63.0 °F 29.79 in Calm   3.0 mph 90% 0.07 in 0 W/m2
21:35 66.0 °F 63.0 °F 29.78 in Calm   3.0 mph 90% 0.04 in 0 W/m2
21:42 66.0 °F 63.3 °F 29.78 in Calm   2.0 mph 91% 0.04 in 0 W/m2
21:48 66.2 °F 63.5 °F 29.78 in SSW 1.0 mph 2.0 mph 91% 0.04 in 0 W/m2
21:53 66.3 °F 63.6 °F 29.78 in SSE 1.0 mph 1.0 mph 91% 0.00 in 0 W/m2
21:59 66.6 °F 63.9 °F 29.77 in SSE 1.0 mph 1.0 mph 91% 0.00 in 0 W/m2
22:05 66.8 °F 64.1 °F 29.78 in SSE 2.0 mph 3.0 mph 91% 0.00 in 0 W/m2
22:12 66.9 °F 64.2 °F 29.78 in SSE 3.0 mph 4.0 mph 91% 0.00 in 0 W/m2
22:18 67.1 °F 64.4 °F 29.78 in SE 4.0 mph 4.0 mph 91% 0.00 in 0 W/m2
22:23 67.1 °F 64.4 °F 29.77 in SE 3.0 mph 3.0 mph 91% 0.00 in 0 W/m2
22:29 67.0 °F 64.3 °F 29.77 in SSE 1.0 mph 2.0 mph 91% 0.00 in 0 W/m2
22:35 67.0 °F 64.3 °F 29.76 in SE 2.0 mph 2.0 mph 91% 0.00 in 0 W/m2
22:42 66.9 °F 63.9 °F 29.75 in SSE 1.0 mph 3.0 mph 90% 0.00 in 0 W/m2
22:48 66.8 °F 63.8 °F 29.75 in ESE 1.0 mph 3.0 mph 90% 0.00 in 0 W/m2
22:53 66.8 °F 63.8 °F 29.75 in ESE 1.0 mph 1.0 mph 90% 0.00 in 0 W/m2
23:00 66.7 °F 63.7 °F 29.74 in Calm     90% 0.00 in 0 W/m2
23:06 66.5 °F 63.8 °F 29.74 in Calm     91% 0.00 in 0 W/m2
23:22 66.4 °F 63.4 °F 29.74 in Calm     90% 0.00 in 0 W/m2
23:25 66.4 °F 63.4 °F 29.74 in SSE 1.0 mph 1.0 mph 90% 0.00 in 0 W/m2
23:28 66.5 °F 63.5 °F 29.74 in SSE 1.0 mph 1.0 mph 90% 0.00 in 0 W/m2
23:33 66.5 °F 63.5 °F 29.74 in Calm   3.0 mph 90% 0.00 in 0 W/m2
23:38 66.6 °F 63.6 °F 29.74 in Calm   3.0 mph 90% 0.00 in 0 W/m2
23:39 66.7 °F 63.7 °F 29.74 in Calm     90% 0.00 in 0 W/m2
23:45 66.8 °F 63.5 °F 29.74 in Calm   1.0 mph 89% 0.00 in 0 W/m2
23:52 66.7 °F 63.7 °F 29.74 in Calm   1.0 mph 90% 0.00 in 0 W/m2
23:58 66.7 °F 63.7 °F 29.74 in SE 1.0 mph 1.0 mph 90% 0.00 in 0 W/m2
Country Meadow, Clay, NY, USA
Compliments of Weather Underground - 2 mb